Time;durP1;ratioP1;P1;durP2;ratioP2;P2;SDS_P1;SDS_P2;PMS_P1;PMS_P2;Temp;Humidity;BMP_temperature;BMP_pressure;BME280_temperature;BME280_humidity;BME280_pressure;Samples;Min_cycle;Max_cycle;Signal;HPM_P1;HPM_P2
2024/01/28 00:00:15;;;;;;;2.28;2.17;;;6.50;70.60;;;;;;5056375;28;20253;-78
2024/01/28 00:02:42;;;;;;;2.15;2.05;;;6.50;70.60;;;;;;5055012;28;20572;-77
2024/01/28 00:05:11;;;;;;;2.13;2.03;;;6.50;70.20;;;;;;5052847;28;20238;-78
2024/01/28 00:07:39;;;;;;;2.15;2.05;;;6.50;69.90;;;;;;5057860;28;20779;-77
2024/01/28 00:10:08;;;;;;;2.17;2.08;;;6.50;70.40;;;;;;5052288;28;20238;-77
2024/01/28 00:12:35;;;;;;;1.60;1.60;;;6.40;70.60;;;;;;5057819;28;20279;-77
2024/01/28 00:15:02;;;;;;;2.00;1.90;;;6.40;70.20;;;;;;5057324;28;20230;-77
2024/01/28 00:17:30;;;;;;;2.50;2.30;;;6.40;70.60;;;;;;5052508;28;20217;-77
2024/01/28 00:19:57;;;;;;;2.10;2.00;;;6.40;70.40;;;;;;5053121;28;20233;-77
2024/01/28 00:22:24;;;;;;;2.10;2.00;;;6.30;70.50;;;;;;5057141;28;20289;-77
2024/01/28 00:24:53;;;;;;;2.28;2.17;;;6.20;70.90;;;;;;5057255;28;20225;-77
2024/01/28 00:27:20;;;;;;;2.08;1.98;;;6.20;70.70;;;;;;5057067;28;20303;-77
2024/01/28 00:29:46;;;;;;;1.85;1.75;;;6.20;71.10;;;;;;5059114;28;20256;-77
2024/01/28 00:32:13;;;;;;;2.00;1.90;;;6.20;72.00;;;;;;5056743;28;20297;-76
2024/01/28 00:34:40;;;;;;;2.15;2.05;;;6.20;71.80;;;;;;5061950;28;20294;-78
2024/01/28 00:37:08;;;;;;;2.20;2.10;;;6.20;72.10;;;;;;5058875;28;20303;-77
2024/01/28 00:39:35;;;;;;;1.92;1.83;;;6.20;72.30;;;;;;5056591;28;20220;-76
2024/01/28 00:42:04;;;;;;;2.08;1.98;;;6.20;72.20;;;;;;5057544;28;20218;-77
2024/01/28 00:44:31;;;;;;;2.20;2.10;;;6.10;71.60;;;;;;5058992;28;20234;-78
2024/01/28 00:46:58;;;;;;;2.55;2.03;;;6.10;70.50;;;;;;5055059;28;20246;-78
2024/01/28 00:49:29;;;;;;;2.10;2.00;;;6.00;70.70;;;;;;5057271;28;20203;-78
2024/01/28 00:51:56;;;;;;;2.10;2.00;;;6.00;71.10;;;;;;5058212;28;20233;-77
2024/01/28 00:54:23;;;;;;;2.33;2.22;;;5.90;71.50;;;;;;5059832;28;20216;-77
2024/01/28 00:56:50;;;;;;;2.30;2.20;;;5.90;71.60;;;;;;5062309;28;20315;-77
2024/01/28 00:59:18;;;;;;;2.03;1.92;;;5.90;71.70;;;;;;5058861;28;20295;-76
2024/01/28 01:01:45;;;;;;;1.80;1.80;;;5.90;72.10;;;;;;5057934;28;20246;-77
2024/01/28 01:04:12;;;;;;;2.25;2.15;;;5.80;72.00;;;;;;5061230;28;20221;-77
2024/01/28 01:06:42;;;;;;;2.20;2.10;;;5.80;72.30;;;;;;5061533;28;20699;-77
2024/01/28 01:09:09;;;;;;;2.17;2.08;;;5.70;72.50;;;;;;5059169;28;21218;-76
2024/01/28 01:11:36;;;;;;;2.10;2.00;;;5.70;72.60;;;;;;5060155;28;21113;-77
2024/01/28 01:14:03;;;;;;;2.10;2.00;;;5.60;73.10;;;;;;5060216;28;20231;-77
2024/01/28 01:16:32;;;;;;;1.88;1.77;;;5.60;72.80;;;;;;5061997;28;20222;-77
2024/01/28 01:18:59;;;;;;;2.40;2.30;;;5.50;71.90;;;;;;5060304;28;20238;-76
2024/01/28 01:21:26;;;;;;;2.10;2.00;;;5.50;71.70;;;;;;5061165;28;20613;-76
2024/01/28 01:23:52;;;;;;;2.22;2.13;;;5.50;73.10;;;;;;5063990;28;20286;-76
2024/01/28 01:26:19;;;;;;;2.40;2.30;;;5.50;73.80;;;;;;5057875;28;20250;-77
2024/01/28 01:28:46;;;;;;;2.30;2.20;;;5.50;73.90;;;;;;5057482;28;20245;-77
2024/01/28 01:31:13;;;;;;;2.50;2.40;;;5.50;74.20;;;;;;5054627;28;20947;-77
2024/01/28 01:33:41;;;;;;;2.08;1.98;;;5.50;73.80;;;;;;5064328;28;20259;-77
2024/01/28 01:36:08;;;;;;;2.40;2.30;;;5.40;73.40;;;;;;5055870;28;20234;-76
2024/01/28 01:38:35;;;;;;;2.28;2.17;;;5.40;73.60;;;;;;5060287;28;20226;-77
2024/01/28 01:41:02;;;;;;;2.50;2.40;;;5.40;73.00;;;;;;5057698;28;20218;-77
2024/01/28 01:43:30;;;;;;;2.30;2.20;;;5.30;73.40;;;;;;5061354;28;20201;-77
2024/01/28 01:45:57;;;;;;;2.30;2.20;;;5.30;73.90;;;;;;5062159;28;20270;-76
2024/01/28 01:48:24;;;;;;;2.60;2.40;;;5.30;74.70;;;;;;5059011;28;20249;-76
2024/01/28 01:50:54;;;;;;;2.47;2.38;;;5.30;74.80;;;;;;5065231;28;20312;-76
2024/01/28 01:53:21;;;;;;;2.30;2.20;;;5.30;74.70;;;;;;5061847;28;20229;-77
2024/01/28 01:55:48;;;;;;;2.20;2.10;;;5.30;75.20;;;;;;5056751;28;20908;-78
2024/01/28 01:58:15;;;;;;;2.20;2.10;;;5.30;75.50;;;;;;5064719;28;20309;-78
2024/01/28 02:00:42;;;;;;;2.38;2.28;;;5.20;75.40;;;;;;5059015;28;20249;-77
2024/01/28 02:03:09;;;;;;;2.17;2.08;;;5.20;75.00;;;;;;5057796;28;20927;-77
2024/01/28 02:05:36;;;;;;;2.30;2.20;;;5.20;74.90;;;;;;5060387;28;20243;-77
2024/01/28 02:08:06;;;;;;;2.40;2.30;;;5.20;74.60;;;;;;5057954;28;20875;-77
2024/01/28 02:10:33;;;;;;;2.40;2.30;;;5.20;74.10;;;;;;5056144;28;20249;-76
2024/01/28 02:13:00;;;;;;;2.40;2.30;;;5.20;73.70;;;;;;5055477;28;20325;-76
2024/01/28 02:15:27;;;;;;;2.38;2.28;;;5.20;73.80;;;;;;5062994;28;20916;-77
2024/01/28 02:17:55;;;;;;;2.58;2.47;;;5.10;74.20;;;;;;5059010;28;20303;-77
2024/01/28 02:20:22;;;;;;;2.25;2.15;;;5.10;74.60;;;;;;5056881;28;20251;-77
2024/01/28 02:22:49;;;;;;;2.30;2.20;;;5.10;74.90;;;;;;5064890;28;20212;-76
2024/01/28 02:25:17;;;;;;;2.50;2.40;;;5.00;75.40;;;;;;5060080;28;20226;-76
2024/01/28 02:27:46;;;;;;;2.00;1.90;;;5.00;75.40;;;;;;5056275;28;21393;-77
2024/01/28 02:30:14;;;;;;;2.30;2.20;;;5.00;75.00;;;;;;5057089;28;20878;-77
2024/01/28 02:32:47;;;;;;;2.10;2.00;;;4.90;74.20;;;;;;5058908;28;20804;-77
2024/01/28 02:35:15;;;;;;;2.47;2.38;;;5.00;74.20;;;;;;5058790;28;20218;-77
2024/01/28 02:37:41;;;;;;;2.17;2.08;;;5.00;74.70;;;;;;5058910;28;20233;-77
2024/01/28 02:40:10;;;;;;;2.10;2.00;;;4.90;75.00;;;;;;5060350;28;20254;-77
2024/01/28 02:42:38;;;;;;;2.40;2.30;;;4.90;75.70;;;;;;5058758;28;20234;-77
2024/01/28 02:45:06;;;;;;;2.42;2.33;;;4.90;76.10;;;;;;5055644;28;20885;-77
2024/01/28 02:47:33;;;;;;;2.30;2.20;;;4.90;76.40;;;;;;5057413;28;20265;-76
2024/01/28 02:50:00;;;;;;;2.45;2.35;;;4.80;76.50;;;;;;5060562;28;20637;-77
2024/01/28 02:52:27;;;;;;;2.35;2.25;;;4.80;76.80;;;;;;5055305;28;20207;-75
2024/01/28 02:54:54;;;;;;;2.40;2.30;;;4.80;76.60;;;;;;5056906;28;20201;-77
2024/01/28 02:57:21;;;;;;;2.47;2.38;;;4.80;76.00;;;;;;5054895;28;20276;-76
2024/01/28 02:59:50;;;;;;;2.28;2.17;;;4.80;76.00;;;;;;5057697;28;20234;-76
2024/01/28 03:02:18;;;;;;;2.40;2.30;;;4.80;76.10;;;;;;5057996;28;20217;-76
2024/01/28 03:04:45;;;;;;;2.20;2.10;;;4.70;76.20;;;;;;5058969;28;20206;-76
2024/01/28 03:07:12;;;;;;;2.60;2.50;;;4.70;76.60;;;;;;5060430;28;20869;-77
2024/01/28 03:09:39;;;;;;;2.20;2.10;;;4.70;76.70;;;;;;5058437;28;20226;-76
2024/01/28 03:12:07;;;;;;;2.28;2.17;;;4.70;76.80;;;;;;5059965;28;20327;-76
2024/01/28 03:14:34;;;;;;;2.38;2.28;;;4.60;76.80;;;;;;5056966;28;21178;-77
2024/01/28 03:17:03;;;;;;;2.55;2.45;;;4.60;77.10;;;;;;5056633;28;20930;-76
2024/01/28 03:19:30;;;;;;;2.40;2.30;;;4.60;77.70;;;;;;5053563;28;20248;-76
2024/01/28 03:21:57;;;;;;;2.47;2.38;;;4.50;77.70;;;;;;5059100;28;20302;-78
2024/01/28 03:24:24;;;;;;;2.35;2.25;;;4.50;78.30;;;;;;5057818;28;20272;-76
2024/01/28 03:26:51;;;;;;;2.50;2.40;;;4.50;78.10;;;;;;5056288;28;20356;-77
2024/01/28 03:29:18;;;;;;;2.47;2.38;;;4.50;77.50;;;;;;5054920;28;20237;-78
2024/01/28 03:31:44;;;;;;;2.25;2.15;;;4.40;77.20;;;;;;5056646;28;20249;-77
2024/01/28 03:34:13;;;;;;;2.50;2.40;;;4.40;77.40;;;;;;5059738;28;20688;-77
2024/01/28 03:36:40;;;;;;;2.75;2.65;;;4.40;77.90;;;;;;5052561;28;20250;-76
2024/01/28 03:39:07;;;;;;;2.35;2.25;;;4.40;78.30;;;;;;5053902;28;20226;-77
2024/01/28 03:41:34;;;;;;;2.20;2.10;;;4.40;78.80;;;;;;5053830;28;20245;-77
2024/01/28 03:44:01;;;;;;;2.70;2.50;;;4.40;78.70;;;;;;5059783;28;20198;-77
2024/01/28 03:46:28;;;;;;;2.50;2.40;;;4.40;78.80;;;;;;5057598;28;20716;-77
2024/01/28 03:48:55;;;;;;;2.58;2.47;;;4.40;78.90;;;;;;5060510;28;20318;-77
2024/01/28 03:51:23;;;;;;;2.60;2.50;;;4.40;78.50;;;;;;5055247;28;20218;-76
2024/01/28 03:53:50;;;;;;;2.50;2.40;;;4.30;78.40;;;;;;5060253;28;20234;-77
2024/01/28 03:56:17;;;;;;;2.60;2.50;;;4.20;78.70;;;;;;5056309;28;20791;-77
2024/01/28 03:58:44;;;;;;;2.35;2.25;;;4.20;79.10;;;;;;5055312;28;20253;-78
2024/01/28 04:01:11;;;;;;;2.67;2.58;;;4.20;79.30;;;;;;5052089;28;20311;-76
2024/01/28 04:03:39;;;;;;;2.58;2.47;;;4.20;79.40;;;;;;5060989;28;20201;-77
2024/01/28 04:06:06;;;;;;;2.50;2.40;;;4.20;79.80;;;;;;5059823;28;20225;-77
2024/01/28 04:08:34;;;;;;;2.40;2.30;;;4.20;80.00;;;;;;5058833;28;20481;-77
2024/01/28 04:11:02;;;;;;;2.60;2.50;;;4.20;80.50;;;;;;5053448;28;20248;-77
2024/01/28 04:13:29;;;;;;;2.50;2.40;;;4.20;80.50;;;;;;5057519;28;20645;-77
2024/01/28 04:15:56;;;;;;;2.72;2.63;;;4.20;81.00;;;;;;5058307;28;20315;-76
2024/01/28 04:18:23;;;;;;;2.70;2.60;;;4.20;80.60;;;;;;5053237;28;20781;-76
2024/01/28 04:20:50;;;;;;;2.30;2.20;;;4.10;80.90;;;;;;5051411;28;20227;-77
2024/01/28 04:23:17;;;;;;;2.55;2.45;;;4.10;81.50;;;;;;5057656;28;20242;-77
2024/01/28 04:25:45;;;;;;;2.65;2.55;;;4.20;81.30;;;;;;5057385;28;20275;-77
2024/01/28 04:28:12;;;;;;;2.60;2.50;;;4.20;80.90;;;;;;5056613;28;20249;-77
2024/01/28 04:30:39;;;;;;;2.70;2.60;;;4.10;80.70;;;;;;5055629;28;20242;-77
2024/01/28 04:33:06;;;;;;;2.85;2.75;;;4.10;80.70;;;;;;5054647;28;20227;-78
2024/01/28 04:35:33;;;;;;;2.33;2.22;;;4.10;81.20;;;;;;5060189;28;20226;-76
2024/01/28 04:38:00;;;;;;;2.60;2.50;;;4.10;81.90;;;;;;5055168;28;20626;-77
2024/01/28 04:40:27;;;;;;;2.70;2.60;;;4.00;82.80;;;;;;5054510;28;20751;-77
2024/01/28 04:42:55;;;;;;;2.88;2.78;;;4.10;82.50;;;;;;5055509;28;20326;-76
2024/01/28 04:45:22;;;;;;;2.58;2.47;;;4.10;82.60;;;;;;5059722;28;20758;-79
2024/01/28 04:47:49;;;;;;;2.72;2.63;;;4.10;82.40;;;;;;5053751;28;20303;-77
2024/01/28 04:50:16;;;;;;;2.38;2.28;;;4.00;82.30;;;;;;5055800;28;20250;-77
2024/01/28 04:52:43;;;;;;;2.80;2.60;;;4.00;81.90;;;;;;5057969;28;20191;-77
2024/01/28 04:55:10;;;;;;;2.47;2.38;;;4.00;81.90;;;;;;5058371;28;20330;-77
2024/01/28 04:57:37;;;;;;;2.80;2.70;;;4.00;81.50;;;;;;5056397;28;20272;-77
2024/01/28 05:00:10;;;;;;;2.33;2.22;;;4.00;81.70;;;;;;5058183;28;20280;-77
2024/01/28 05:02:39;;;;;;;2.55;2.45;;;3.90;82.00;;;;;;5058877;28;20218;-77
2024/01/28 05:05:07;;;;;;;2.90;2.80;;;3.90;81.70;;;;;;5061719;28;20894;-77
2024/01/28 05:07:34;;;;;;;2.63;2.53;;;3.80;82.10;;;;;;5061701;28;20522;-78
2024/01/28 05:10:01;;;;;;;2.55;2.45;;;3.80;82.50;;;;;;5063131;28;20739;-76
2024/01/28 05:12:28;;;;;;;2.67;2.58;;;3.80;82.80;;;;;;5060677;28;21199;-76
2024/01/28 05:14:55;;;;;;;2.42;2.33;;;3.70;83.40;;;;;;5063412;28;20198;-77
2024/01/28 05:17:23;;;;;;;2.67;2.58;;;3.70;83.80;;;;;;5059882;28;20214;-76
2024/01/28 05:19:52;;;;;;;2.80;2.70;;;3.70;84.10;;;;;;5059350;28;20198;-77
2024/01/28 05:22:19;;;;;;;3.05;2.95;;;3.70;84.00;;;;;;5064344;28;20249;-77
2024/01/28 05:24:49;;;;;;;2.53;2.42;;;3.60;84.00;;;;;;5057994;28;20203;-77
2024/01/28 05:27:16;;;;;;;2.50;2.40;;;3.60;83.90;;;;;;5062305;28;20214;-77
2024/01/28 05:29:43;;;;;;;2.22;2.13;;;3.60;83.70;;;;;;5060168;28;20239;-77
2024/01/28 05:32:10;;;;;;;2.80;2.70;;;3.60;83.60;;;;;;5063549;28;20708;-77
2024/01/28 05:34:38;;;;;;;2.70;2.60;;;3.50;83.60;;;;;;5062011;28;20212;-77
2024/01/28 05:37:05;;;;;;;2.65;2.55;;;3.50;83.90;;;;;;5062145;28;20240;-77
2024/01/28 05:39:32;;;;;;;2.80;2.70;;;3.50;84.20;;;;;;5061000;28;20241;-77
2024/01/28 05:41:59;;;;;;;2.90;2.80;;;3.50;84.30;;;;;;5061249;28;20740;-76
2024/01/28 05:44:26;;;;;;;2.70;2.60;;;3.40;84.50;;;;;;5060214;28;20206;-76
2024/01/28 05:46:53;;;;;;;2.65;2.55;;;3.40;84.80;;;;;;5058704;28;20222;-76
2024/01/28 05:49:20;;;;;;;2.47;2.38;;;3.40;84.80;;;;;;5060901;28;20637;-77
2024/01/28 05:51:48;;;;;;;2.40;2.30;;;3.40;85.10;;;;;;5061505;28;20287;-77
2024/01/28 05:54:15;;;;;;;2.88;2.78;;;3.30;85.20;;;;;;5059297;28;20244;-77
2024/01/28 05:56:42;;;;;;;3.03;2.92;;;3.30;85.40;;;;;;5060783;28;20214;-76
2024/01/28 05:59:09;;;;;;;3.00;2.90;;;3.30;85.30;;;;;;5060922;28;20277;-77
2024/01/28 06:01:36;;;;;;;3.47;3.25;;;3.30;85.40;;;;;;5054860;28;20234;-76
2024/01/28 06:04:04;;;;;;;3.45;3.25;;;3.20;85.60;;;;;;5060406;28;20268;-76
2024/01/28 06:06:32;;;;;;;3.50;3.30;;;3.20;86.10;;;;;;5059582;28;20219;-76
2024/01/28 06:09:00;;;;;;;3.45;3.25;;;3.20;86.00;;;;;;5057244;28;20764;-76
2024/01/28 06:11:28;;;;;;;2.92;2.83;;;3.20;86.50;;;;;;5058748;28;20214;-78
2024/01/28 06:13:55;;;;;;;2.83;2.72;;;3.20;87.00;;;;;;5060537;28;20285;-76
2024/01/28 06:16:22;;;;;;;3.13;3.00;;;3.20;87.10;;;;;;5058625;28;20264;-76
2024/01/28 06:18:49;;;;;;;3.28;3.17;;;3.10;87.10;;;;;;5059228;28;20298;-77
2024/01/28 06:21:15;;;;;;;2.83;2.63;;;3.10;87.00;;;;;;5058609;28;20279;-77
2024/01/28 06:23:44;;;;;;;3.10;3.00;;;3.10;87.40;;;;;;5060414;28;20234;-77
2024/01/28 06:26:12;;;;;;;2.60;2.50;;;3.10;87.70;;;;;;5060098;28;20234;-76
2024/01/28 06:28:39;;;;;;;3.20;3.10;;;3.10;87.90;;;;;;5056029;28;20253;-76
2024/01/28 06:31:06;;;;;;;2.88;2.72;;;3.10;88.10;;;;;;5058278;28;20814;-77
2024/01/28 06:33:33;;;;;;;3.13;2.92;;;3.00;87.50;;;;;;5057855;28;20206;-77
2024/01/28 06:36:00;;;;;;;3.22;3.13;;;3.00;87.40;;;;;;5058145;28;20234;-76
2024/01/28 06:38:27;;;;;;;3.22;3.10;;;3.00;87.40;;;;;;5060333;28;20273;-76
2024/01/28 06:40:55;;;;;;;2.90;2.80;;;3.00;87.60;;;;;;5056451;28;20206;-76
2024/01/28 06:43:25;;;;;;;2.92;2.80;;;3.00;87.40;;;;;;5057597;28;20288;-76
2024/01/28 06:45:52;;;;;;;3.20;3.00;;;2.90;87.70;;;;;;5058185;28;20225;-77
2024/01/28 06:48:19;;;;;;;3.20;3.00;;;2.90;88.10;;;;;;5060145;28;20687;-76
2024/01/28 06:50:46;;;;;;;3.03;2.92;;;2.90;88.50;;;;;;5055434;28;20334;-77
2024/01/28 06:53:13;;;;;;;3.28;3.08;;;2.90;88.90;;;;;;5058086;28;20194;-77
2024/01/28 06:55:40;;;;;;;3.10;2.95;;;2.90;89.30;;;;;;5061578;28;20259;-76
2024/01/28 06:58:07;;;;;;;3.15;3.05;;;2.90;89.60;;;;;;5058176;28;20304;-77
2024/01/28 07:00:35;;;;;;;2.78;2.67;;;2.90;89.80;;;;;;5056319;28;20246;-76
2024/01/28 07:03:02;;;;;;;2.75;2.65;;;2.90;89.90;;;;;;5052832;28;20752;-78
2024/01/28 07:05:29;;;;;;;3.15;3.00;;;2.90;89.90;;;;;;5056278;28;20259;-78
2024/01/28 07:07:56;;;;;;;3.20;3.10;;;2.90;90.00;;;;;;5057280;28;20299;-77
2024/01/28 07:10:23;;;;;;;2.95;2.85;;;3.00;90.00;;;;;;5059280;28;20218;-78
2024/01/28 07:12:50;;;;;;;3.08;2.88;;;3.00;90.00;;;;;;5057785;28;20190;-77
2024/01/28 07:15:17;;;;;;;3.17;3.00;;;3.00;90.00;;;;;;5061302;28;20275;-78
2024/01/28 07:17:46;;;;;;;3.58;3.38;;;3.00;90.00;;;;;;5060158;28;20267;-77
2024/01/28 07:20:14;;;;;;;3.90;3.70;;;3.00;90.10;;;;;;5055357;28;20950;-77
2024/01/28 07:22:41;;;;;;;4.10;3.83;;;3.00;90.20;;;;;;5057389;28;20585;-77
2024/01/28 07:25:08;;;;;;;4.00;3.80;;;3.00;90.20;;;;;;5055643;28;20311;-77
2024/01/28 07:27:35;;;;;;;3.65;3.42;;;3.00;90.60;;;;;;5056715;28;20688;-77
2024/01/28 07:30:02;;;;;;;4.20;3.90;;;3.00;90.80;;;;;;5055570;28;20218;-77
2024/01/28 07:32:29;;;;;;;3.78;3.58;;;3.10;90.90;;;;;;5057856;28;20222;-77
2024/01/28 07:34:58;;;;;;;3.90;3.70;;;3.10;91.00;;;;;;5056565;28;20784;-78
2024/01/28 07:37:25;;;;;;;4.13;3.92;;;3.20;90.90;;;;;;5057294;28;20359;-76
2024/01/28 07:39:52;;;;;;;4.22;4.03;;;3.20;90.80;;;;;;5057793;28;20198;-77
2024/01/28 07:42:19;;;;;;;3.95;3.75;;;3.20;90.60;;;;;;5058611;28;20277;-77
2024/01/28 07:44:46;;;;;;;3.67;3.47;;;3.20;90.40;;;;;;5051342;28;20240;-77
2024/01/28 07:47:13;;;;;;;4.07;3.88;;;3.20;90.40;;;;;;5057515;28;20298;-77
2024/01/28 07:49:40;;;;;;;3.50;3.30;;;3.20;90.30;;;;;;5055867;28;20593;-76
2024/01/28 07:52:08;;;;;;;3.78;3.47;;;3.20;90.20;;;;;;5055244;28;20266;-77
2024/01/28 07:54:36;;;;;;;3.00;2.90;;;3.20;90.10;;;;;;5057692;28;20709;-76
2024/01/28 07:57:03;;;;;;;3.70;3.50;;;3.20;90.00;;;;;;5058676;28;20218;-79
2024/01/28 07:59:30;;;;;;;4.03;3.83;;;3.30;90.10;;;;;;5057294;28;20227;-77
2024/01/28 08:01:57;;;;;;;5.30;4.80;;;3.30;90.10;;;;;;5053995;28;20253;-76
2024/01/28 08:04:24;;;;;;;5.47;5.07;;;3.40;90.20;;;;;;5051821;28;20222;-77
2024/01/28 08:06:51;;;;;;;5.20;4.78;;;3.50;90.30;;;;;;5054340;28;20215;-77
2024/01/28 08:09:19;;;;;;;5.15;4.75;;;3.80;89.80;;;;;;5055377;28;20229;-78
2024/01/28 08:11:46;;;;;;;4.68;4.38;;;4.40;89.30;;;;;;5056679;28;20296;-77
2024/01/28 08:14:13;;;;;;;4.88;4.57;;;5.30;88.60;;;;;;5056969;28;20226;-78
2024/01/28 08:16:40;;;;;;;4.53;4.18;;;6.30;86.70;;;;;;5059171;28;20287;-78
2024/01/28 08:19:08;;;;;;;4.60;4.30;;;7.40;84.40;;;;;;5059293;28;20263;-78
2024/01/28 08:21:36;;;;;;;3.60;3.40;;;8.30;82.40;;;;;;5048243;28;20241;-78
2024/01/28 08:24:03;;;;;;;3.83;3.53;;;9.10;79.70;;;;;;5051959;28;20665;-78
2024/01/28 08:26:31;;;;;;;4.38;4.03;;;9.80;78.00;;;;;;5050426;28;20223;-77
2024/01/28 08:29:00;;;;;;;3.83;3.53;;;10.30;75.80;;;;;;5056164;28;20292;-76
2024/01/28 08:31:27;;;;;;;3.60;3.33;;;10.70;75.50;;;;;;5059156;28;20216;-77
2024/01/28 08:33:54;;;;;;;3.95;3.55;;;11.10;73.60;;;;;;5055345;28;20263;-77
2024/01/28 08:36:21;;;;;;;3.13;2.92;;;11.50;72.80;;;;;;5051825;28;20217;-79
2024/01/28 08:38:48;;;;;;;3.25;3.05;;;11.80;69.90;;;;;;5055330;28;20812;-78
2024/01/28 08:41:15;;;;;;;2.60;2.50;;;12.00;70.30;;;;;;5055452;28;20808;-79
2024/01/28 08:43:43;;;;;;;3.10;2.90;;;12.10;69.40;;;;;;5056955;28;20211;-77
2024/01/28 08:46:11;;;;;;;2.90;2.70;;;12.30;67.50;;;;;;5055732;28;20222;-78
2024/01/28 08:48:38;;;;;;;2.90;2.70;;;12.40;67.30;;;;;;5059300;28;20364;-77
2024/01/28 08:51:05;;;;;;;2.70;2.50;;;12.60;67.30;;;;;;5057687;28;20694;-76
2024/01/28 08:53:32;;;;;;;2.58;2.38;;;12.70;66.40;;;;;;5061644;28;20653;-76
2024/01/28 08:55:59;;;;;;;2.60;2.50;;;12.80;66.40;;;;;;5057430;28;20292;-76
2024/01/28 08:58:26;;;;;;;2.50;2.30;;;12.70;65.60;;;;;;5058740;28;20752;-77
2024/01/28 09:00:54;;;;;;;2.30;2.20;;;12.90;65.70;;;;;;5055963;28;20295;-77
2024/01/28 09:03:21;;;;;;;2.15;2.05;;;13.00;65.40;;;;;;5055161;28;21723;-78
2024/01/28 09:05:48;;;;;;;2.30;2.20;;;13.10;65.50;;;;;;5059177;28;20900;-77
2024/01/28 09:08:15;;;;;;;2.08;1.90;;;13.20;64.70;;;;;;5055211;28;20222;-76
2024/01/28 09:10:42;;;;;;;2.33;2.13;;;13.30;63.80;;;;;;5057676;28;20609;-77
2024/01/28 09:13:09;;;;;;;2.85;2.67;;;13.40;64.40;;;;;;5056518;28;20283;-77
2024/01/28 09:15:36;;;;;;;2.35;2.25;;;13.30;63.60;;;;;;5058399;28;20708;-77
2024/01/28 09:18:05;;;;;;;4.70;3.22;;;13.30;62.90;;;;;;5057373;28;20324;-77
2024/01/28 09:20:32;;;;;;;3.53;3.20;;;13.30;63.10;;;;;;5055075;28;20218;-77
2024/01/28 09:22:58;;;;;;;2.53;2.33;;;13.40;61.80;;;;;;5054771;28;20242;-77
2024/01/28 09:25:28;;;;;;;2.65;2.42;;;13.40;61.70;;;;;;5058721;28;20225;-77
2024/01/28 09:27:55;;;;;;;2.30;2.10;;;13.70;61.80;;;;;;5056168;28;20229;-77
2024/01/28 09:30:22;;;;;;;2.15;2.05;;;13.80;61.50;;;;;;5057692;28;20229;-78
2024/01/28 09:32:49;;;;;;;2.75;2.50;;;14.40;59.50;;;;;;5056795;28;20229;-78
2024/01/28 09:35:17;;;;;;;2.58;2.38;;;15.20;59.80;;;;;;5054427;28;20295;-78
2024/01/28 09:37:44;;;;;;;2.38;2.17;;;16.80;55.90;;;;;;5056505;28;20935;-77
2024/01/28 09:40:13;;;;;;;3.80;2.30;;;18.00;53.70;;;;;;5058419;28;20230;-77
2024/01/28 09:42:48;;;;;;;4.47;2.50;;;19.60;50.40;;;;;;5057000;28;20210;-76
2024/01/28 09:45:16;;;;;;;2.45;2.22;;;20.80;46.90;;;;;;5058379;28;20225;-77
2024/01/28 09:47:43;;;;;;;2.28;2.17;;;21.50;44.40;;;;;;5058857;28;20293;-78
2024/01/28 09:50:12;;;;;;;2.53;2.33;;;21.80;43.10;;;;;;5058996;28;20218;-77
2024/01/28 09:52:41;;;;;;;2.83;2.40;;;21.30;43.40;;;;;;5054409;28;20890;-77
2024/01/28 09:55:08;;;;;;;2.47;2.28;;;20.40;45.00;;;;;;5055444;28;20276;-77
2024/01/28 09:57:37;;;;;;;3.47;2.53;;;19.00;47.60;;;;;;5059716;28;20268;-78
2024/01/28 10:00:07;;;;;;;2.70;2.50;;;17.70;50.40;;;;;;5053700;28;20285;-78
2024/01/28 10:02:35;;;;;;;2.60;2.40;;;16.90;51.80;;;;;;5058172;28;20202;-76
2024/01/28 10:05:03;;;;;;;2.17;2.08;;;16.10;53.20;;;;;;5061205;28;20230;-77
2024/01/28 10:07:40;;;;;;;2.85;2.38;;;15.40;55.10;;;;;;5055914;28;20218;-78
2024/01/28 10:10:09;;;;;;;2.65;2.42;;;14.90;56.20;;;;;;5055332;28;20257;-76
2024/01/28 10:12:37;;;;;;;2.97;2.78;;;14.90;56.90;;;;;;5055996;28;20589;-77
2024/01/28 10:15:14;;;;;;;2.40;1.98;;;14.90;57.10;;;;;;5059746;28;20279;-77
2024/01/28 10:17:46;;;;;;;4.22;2.78;;;14.80;56.90;;;;;;5054905;28;20218;-77
2024/01/28 10:20:14;;;;;;;2.58;2.38;;;14.60;57.20;;;;;;5054193;28;20717;-77
2024/01/28 10:22:41;;;;;;;2.25;2.15;;;14.50;57.90;;;;;;5055478;28;20306;-76
2024/01/28 10:25:12;;;;;;;2.17;2.00;;;14.60;57.50;;;;;;5056170;28;20222;-76
2024/01/28 10:27:40;;;;;;;2.88;2.42;;;14.30;57.70;;;;;;5055533;28;20219;-78
2024/01/28 10:30:08;;;;;;;2.58;2.38;;;14.30;58.10;;;;;;5056302;28;20273;-77
2024/01/28 10:32:35;;;;;;;3.72;2.90;;;14.60;58.00;;;;;;5059309;28;20202;-76
2024/01/28 10:35:03;;;;;;;2.78;2.58;;;14.60;57.20;;;;;;5059503;28;20214;-77
2024/01/28 10:37:32;;;;;;;2.70;2.50;;;14.70;57.40;;;;;;5057427;28;20214;-78
2024/01/28 10:40:07;;;;;;;2.30;2.20;;;14.70;57.70;;;;;;5059330;28;20209;-78
2024/01/28 10:42:38;;;;;;;2.42;2.22;;;14.80;57.20;;;;;;5055463;28;20228;-78
2024/01/28 10:45:09;;;;;;;2.35;2.20;;;14.70;57.30;;;;;;5058688;28;20253;-77
2024/01/28 10:47:38;;;;;;;2.45;2.25;;;14.70;57.40;;;;;;5057308;28;20238;-78
2024/01/28 10:50:09;;;;;;;2.55;2.38;;;14.60;57.30;;;;;;5058385;28;20219;-78
2024/01/28 10:52:37;;;;;;;2.58;2.38;;;14.80;57.80;;;;;;5060161;28;20624;-79
2024/01/28 10:55:05;;;;;;;2.63;2.42;;;14.90;57.90;;;;;;5057876;28;20272;-78
2024/01/28 10:57:35;;;;;;;2.65;2.20;;;15.10;56.80;;;;;;5059470;28;20228;-78
2024/01/28 11:00:04;;;;;;;2.78;2.58;;;15.00;58.10;;;;;;5053944;28;22654;-78
2024/01/28 11:02:34;;;;;;;2.80;2.60;;;15.10;57.40;;;;;;5053253;28;21096;-79
2024/01/28 11:05:02;;;;;;;3.50;2.65;;;14.90;57.80;;;;;;5056698;28;20221;-78
2024/01/28 11:07:30;;;;;;;3.38;2.40;;;14.90;57.90;;;;;;5051240;28;20229;-77
2024/01/28 11:10:00;;;;;;;2.88;2.67;;;15.20;58.30;;;;;;5053444;28;20237;-78
2024/01/28 11:12:28;;;;;;;2.90;2.70;;;15.20;58.60;;;;;;5055898;28;20225;-78
2024/01/28 11:14:58;;;;;;;4.10;2.92;;;15.20;58.50;;;;;;5058037;28;20685;-78
2024/01/28 11:17:31;;;;;;;3.20;3.00;;;15.00;58.50;;;;;;5059930;28;20235;-78
2024/01/28 11:20:07;;;;;;;2.63;2.42;;;14.70;59.10;;;;;;5059208;28;20755;-79
2024/01/28 11:22:47;;;;;;;3.15;2.20;;;15.00;59.30;;;;;;5064597;28;20239;-78
2024/01/28 11:25:19;;;;;;;3.15;2.42;;;15.20;58.70;;;;;;5056392;28;20663;-78
2024/01/28 11:27:47;;;;;;;3.10;2.80;;;15.40;58.20;;;;;;5054437;28;20224;-77
2024/01/28 11:30:19;;;;;;;5.78;2.75;;;15.30;58.00;;;;;;5061880;28;20755;-78
2024/01/28 11:32:47;;;;;;;2.83;2.50;;;15.30;60.10;;;;;;5061487;28;20198;-78
2024/01/28 11:35:14;;;;;;;2.78;2.58;;;14.80;59.30;;;;;;5056440;28;20232;-78
2024/01/28 11:37:47;;;;;;;2.75;2.55;;;14.60;59.50;;;;;;5059304;28;20230;-76
2024/01/28 11:40:24;;;;;;;3.03;2.83;;;14.20;59.10;;;;;;5056540;28;20221;-76
2024/01/28 11:42:54;;;;;;;2.80;2.60;;;14.00;60.20;;;;;;5060614;28;20205;-78
2024/01/28 11:45:24;;;;;;;3.10;2.60;;;13.60;61.90;;;;;;5059112;28;20228;-77
2024/01/28 11:47:51;;;;;;;2.80;2.60;;;13.50;60.70;;;;;;5059313;28;20245;-77
2024/01/28 11:50:18;;;;;;;2.72;2.53;;;13.50;60.60;;;;;;5056139;28;20218;-77
2024/01/28 11:52:45;;;;;;;2.25;2.15;;;13.80;61.20;;;;;;5056030;28;20194;-77
2024/01/28 11:55:14;;;;;;;2.70;2.50;;;13.90;59.90;;;;;;5053552;28;20796;-76
2024/01/28 11:57:42;;;;;;;4.43;2.70;;;14.10;59.70;;;;;;5056201;28;20720;-77
2024/01/28 12:00:11;;;;;;;2.53;2.33;;;14.20;60.40;;;;;;5057128;28;20360;-79
2024/01/28 12:02:41;;;;;;;2.58;2.38;;;14.30;58.80;;;;;;5060134;28;20269;-79
2024/01/28 12:05:09;;;;;;;2.90;2.70;;;14.40;58.60;;;;;;5058010;28;20222;-77
2024/01/28 12:07:38;;;;;;;2.63;2.42;;;14.50;58.50;;;;;;5056965;28;20726;-77
2024/01/28 12:10:09;;;;;;;2.33;2.20;;;14.50;58.50;;;;;;5057099;28;20874;-77
2024/01/28 12:12:37;;;;;;;3.05;2.55;;;14.40;57.90;;;;;;5056141;28;20199;-77
2024/01/28 12:15:05;;;;;;;2.33;2.13;;;14.10;58.20;;;;;;5058295;28;20306;-77
2024/01/28 12:17:35;;;;;;;2.47;2.30;;;14.10;58.50;;;;;;5057860;28;20226;-77
2024/01/28 12:20:05;;;;;;;2.10;2.00;;;13.90;58.00;;;;;;5065508;28;20236;-77
2024/01/28 12:22:37;;;;;;;1.98;1.88;;;13.70;58.50;;;;;;5063344;28;20260;-77
2024/01/28 12:25:08;;;;;;;2.22;2.03;;;13.30;59.00;;;;;;5062832;28;20687;-77
2024/01/28 12:27:36;;;;;;;2.38;2.17;;;13.30;59.10;;;;;;5056584;28;20329;-78
2024/01/28 12:30:03;;;;;;;2.15;2.05;;;13.30;58.90;;;;;;5060021;28;20682;-78
2024/01/28 12:32:30;;;;;;;2.67;2.47;;;13.30;58.40;;;;;;5059496;28;20737;-78
2024/01/28 12:35:03;;;;;;;2.45;2.35;;;13.30;59.10;;;;;;5056775;28;20260;-77
2024/01/28 12:37:32;;;;;;;2.28;2.08;;;13.40;59.10;;;;;;5059132;28;20230;-78
2024/01/28 12:39:59;;;;;;;2.45;2.25;;;13.60;59.20;;;;;;5064238;28;20276;-78
2024/01/28 12:42:26;;;;;;;2.17;2.08;;;13.40;58.20;;;;;;5058594;28;20222;-79
2024/01/28 12:44:53;;;;;;;1.90;1.80;;;13.20;58.80;;;;;;5061874;28;20218;-77
2024/01/28 12:47:20;;;;;;;1.98;1.88;;;13.20;58.40;;;;;;5058525;28;20222;-77
2024/01/28 12:49:47;;;;;;;2.10;2.00;;;13.20;58.50;;;;;;5059097;28;20659;-78
2024/01/28 12:52:14;;;;;;;2.20;2.10;;;13.40;58.50;;;;;;5058562;28;20205;-78
2024/01/28 12:54:42;;;;;;;2.08;1.98;;;13.40;58.20;;;;;;5066156;28;20194;-78